sensor_id;sensor_type;location;lat;lon;timestamp;pressure;altitude;pressure_sealevel;temperature;humidity
35694;BME280;21812;55.536;37.664;2023-03-18T00:00:08;101419.97;;;1.04;43.07
35694;BME280;21812;55.536;37.664;2023-03-18T00:02:35;101424.88;;;1.10;43.35
35694;BME280;21812;55.536;37.664;2023-03-18T00:05:02;101420.81;;;1.05;44.75
35694;BME280;21812;55.536;37.664;2023-03-18T00:07:29;101432.34;;;1.02;44.80
35694;BME280;21812;55.536;37.664;2023-03-18T00:09:56;101433.47;;;0.98;44.51
35694;BME280;21812;55.536;37.664;2023-03-18T00:12:22;101429.91;;;0.99;43.63
35694;BME280;21812;55.536;37.664;2023-03-18T00:14:49;101427.09;;;1.02;43.95
35694;BME280;21812;55.536;37.664;2023-03-18T00:17:18;101425.72;;;0.95;43.97
35694;BME280;21812;55.536;37.664;2023-03-18T00:19:45;101418.47;;;0.84;43.31
35694;BME280;21812;55.536;37.664;2023-03-18T00:22:11;101439.84;;;0.94;43.23
35694;BME280;21812;55.536;37.664;2023-03-18T00:24:36;101429.47;;;0.91;45.16
35694;BME280;21812;55.536;37.664;2023-03-18T00:27:02;101436.81;;;0.86;44.33
35694;BME280;21812;55.536;37.664;2023-03-18T00:29:28;101442.22;;;0.83;44.32
35694;BME280;21812;55.536;37.664;2023-03-18T00:31:56;101437.03;;;0.81;44.69
35694;BME280;21812;55.536;37.664;2023-03-18T00:34:22;101434.41;;;0.81;44.99
35694;BME280;21812;55.536;37.664;2023-03-18T00:36:48;101441.38;;;0.82;44.19
35694;BME280;21812;55.536;37.664;2023-03-18T00:39:15;101444.00;;;0.82;44.15
35694;BME280;21812;55.536;37.664;2023-03-18T00:41:43;101443.91;;;0.84;44.62
35694;BME280;21812;55.536;37.664;2023-03-18T00:44:08;101449.00;;;0.87;44.37
35694;BME280;21812;55.536;37.664;2023-03-18T00:46:35;101412.84;;;0.58;45.03
35694;BME280;21812;55.536;37.664;2023-03-18T00:49:05;101416.84;;;0.50;44.88
35694;BME280;21812;55.536;37.664;2023-03-18T00:51:33;101422.34;;;0.45;44.89
35694;BME280;21812;55.536;37.664;2023-03-18T00:54:01;101459.00;;;0.48;45.15
35694;BME280;21812;55.536;37.664;2023-03-18T00:56:30;101455.66;;;0.45;45.55
35694;BME280;21812;55.536;37.664;2023-03-18T00:58:56;101450.00;;;0.36;46.31
35694;BME280;21812;55.536;37.664;2023-03-18T01:01:23;101457.75;;;0.38;46.63
35694;BME280;21812;55.536;37.664;2023-03-18T01:03:49;101460.66;;;0.33;47.65
35694;BME280;21812;55.536;37.664;2023-03-18T01:06:22;101461.56;;;0.32;45.79
35694;BME280;21812;55.536;37.664;2023-03-18T01:08:49;101463.69;;;0.26;46.35
35694;BME280;21812;55.536;37.664;2023-03-18T01:11:15;101473.16;;;0.28;47.17
35694;BME280;21812;55.536;37.664;2023-03-18T01:13:41;101473.44;;;0.24;46.22
35694;BME280;21812;55.536;37.664;2023-03-18T01:16:08;101481.06;;;0.28;46.85
35694;BME280;21812;55.536;37.664;2023-03-18T01:18:35;101477.84;;;0.23;47.20
35694;BME280;21812;55.536;37.664;2023-03-18T01:21:02;101479.59;;;0.23;46.38
35694;BME280;21812;55.536;37.664;2023-03-18T01:23:33;101479.97;;;0.32;45.65
35694;BME280;21812;55.536;37.664;2023-03-18T01:25:59;101484.03;;;0.38;45.02
35694;BME280;21812;55.536;37.664;2023-03-18T01:28:26;101484.22;;;0.35;44.54
35694;BME280;21812;55.536;37.664;2023-03-18T01:30:54;101488.03;;;0.29;45.37
35694;BME280;21812;55.536;37.664;2023-03-18T01:33:21;101486.31;;;0.28;44.83
35694;BME280;21812;55.536;37.664;2023-03-18T01:35:56;101494.00;;;0.49;44.46
35694;BME280;21812;55.536;37.664;2023-03-18T01:38:26;101493.38;;;0.44;44.36
35694;BME280;21812;55.536;37.664;2023-03-18T01:41:02;101495.50;;;0.37;45.89
35694;BME280;21812;55.536;37.664;2023-03-18T01:43:33;101497.84;;;0.26;45.54
35694;BME280;21812;55.536;37.664;2023-03-18T01:46:01;101464.72;;;-0.12;45.96
35694;BME280;21812;55.536;37.664;2023-03-18T01:48:30;101503.66;;;0.15;45.20
35694;BME280;21812;55.536;37.664;2023-03-18T01:51:06;101501.63;;;0.20;45.71
35694;BME280;21812;55.536;37.664;2023-03-18T01:53:39;101484.75;;;0.08;45.12
35694;BME280;21812;55.536;37.664;2023-03-18T01:56:06;101508.50;;;0.23;44.88
35694;BME280;21812;55.536;37.664;2023-03-18T01:58:45;101488.00;;;0.13;44.79
35694;BME280;21812;55.536;37.664;2023-03-18T02:01:27;101515.16;;;0.30;44.63
35694;BME280;21812;55.536;37.664;2023-03-18T02:03:59;101514.31;;;0.29;45.23
35694;BME280;21812;55.536;37.664;2023-03-18T02:06:27;101520.78;;;0.22;45.89
35694;BME280;21812;55.536;37.664;2023-03-18T02:08:58;101526.06;;;0.22;45.20
35694;BME280;21812;55.536;37.664;2023-03-18T02:11:25;101525.44;;;0.17;44.68
35694;BME280;21812;55.536;37.664;2023-03-18T02:13:55;101524.53;;;0.18;44.87
35694;BME280;21812;55.536;37.664;2023-03-18T02:16:35;101515.88;;;0.16;44.93
35694;BME280;21812;55.536;37.664;2023-03-18T02:19:25;101520.94;;;0.19;45.18
35694;BME280;21812;55.536;37.664;2023-03-18T02:24:28;101546.38;;;0.18;44.48
35694;BME280;21812;55.536;37.664;2023-03-18T02:29:33;101518.50;;;-0.02;46.07
35694;BME280;21812;55.536;37.664;2023-03-18T02:32:09;101557.06;;;0.15;45.30
35694;BME280;21812;55.536;37.664;2023-03-18T02:34:37;101554.97;;;0.05;46.00
35694;BME280;21812;55.536;37.664;2023-03-18T02:37:05;101561.75;;;0.09;45.34
35694;BME280;21812;55.536;37.664;2023-03-18T02:39:34;101569.00;;;0.04;45.90
35694;BME280;21812;55.536;37.664;2023-03-18T02:42:00;101559.00;;;-0.06;45.45
35694;BME280;21812;55.536;37.664;2023-03-18T02:44:27;101564.00;;;-0.01;45.43
35694;BME280;21812;55.536;37.664;2023-03-18T02:47:16;101506.44;;;-0.41;45.71
35694;BME280;21812;55.536;37.664;2023-03-18T02:49:43;101570.41;;;-0.07;45.47
35694;BME280;21812;55.536;37.664;2023-03-18T02:52:09;101563.75;;;-0.14;45.67
35694;BME280;21812;55.536;37.664;2023-03-18T02:54:35;101572.00;;;-0.22;46.27
35694;BME280;21812;55.536;37.664;2023-03-18T02:57:00;101574.56;;;-0.20;46.21
35694;BME280;21812;55.536;37.664;2023-03-18T02:59:27;101578.91;;;-0.19;47.59
35694;BME280;21812;55.536;37.664;2023-03-18T03:01:55;101572.00;;;-0.22;46.88
35694;BME280;21812;55.536;37.664;2023-03-18T03:04:23;101538.38;;;-0.50;47.37
35694;BME280;21812;55.536;37.664;2023-03-18T03:06:50;101586.91;;;-0.40;48.08
35694;BME280;21812;55.536;37.664;2023-03-18T03:09:21;101582.00;;;-0.47;47.88
35694;BME280;21812;55.536;37.664;2023-03-18T03:11:47;101585.38;;;-0.63;48.47
35694;BME280;21812;55.536;37.664;2023-03-18T03:14:19;101579.97;;;-0.79;49.99
35694;BME280;21812;55.536;37.664;2023-03-18T03:16:48;101579.91;;;-0.77;49.91
35694;BME280;21812;55.536;37.664;2023-03-18T03:19:15;101584.38;;;-0.79;49.92
35694;BME280;21812;55.536;37.664;2023-03-18T03:21:41;101575.44;;;-0.75;49.98
35694;BME280;21812;55.536;37.664;2023-03-18T03:24:06;101576.44;;;-0.77;51.17
35694;BME280;21812;55.536;37.664;2023-03-18T03:26:33;101577.34;;;-0.79;50.02
35694;BME280;21812;55.536;37.664;2023-03-18T03:28:59;101579.97;;;-0.79;49.64
35694;BME280;21812;55.536;37.664;2023-03-18T03:31:25;101591.81;;;-0.70;49.75
35694;BME280;21812;55.536;37.664;2023-03-18T03:33:51;101593.59;;;-0.70;51.25
35694;BME280;21812;55.536;37.664;2023-03-18T03:36:17;101588.63;;;-0.76;51.52
35694;BME280;21812;55.536;37.664;2023-03-18T03:38:43;101588.50;;;-0.73;51.01
35694;BME280;21812;55.536;37.664;2023-03-18T03:41:11;101588.78;;;-0.80;49.89
35694;BME280;21812;55.536;37.664;2023-03-18T03:43:38;101594.75;;;-0.76;51.29
35694;BME280;21812;55.536;37.664;2023-03-18T03:46:05;101590.16;;;-0.72;49.03
35694;BME280;21812;55.536;37.664;2023-03-18T03:48:32;101598.22;;;-0.75;50.15
35694;BME280;21812;55.536;37.664;2023-03-18T03:50:58;101588.06;;;-0.83;50.45
35694;BME280;21812;55.536;37.664;2023-03-18T03:53:25;101596.34;;;-0.73;49.84
35694;BME280;21812;55.536;37.664;2023-03-18T03:55:51;101599.81;;;-0.73;50.13
35694;BME280;21812;55.536;37.664;2023-03-18T03:58:17;101597.25;;;-0.74;50.11
35694;BME280;21812;55.536;37.664;2023-03-18T04:00:45;101580.56;;;-0.91;49.88
35694;BME280;21812;55.536;37.664;2023-03-18T04:03:11;101603.44;;;-0.75;50.62
35694;BME280;21812;55.536;37.664;2023-03-18T04:05:36;101604.22;;;-0.73;50.56
35694;BME280;21812;55.536;37.664;2023-03-18T04:08:03;101611.16;;;-0.72;50.32
35694;BME280;21812;55.536;37.664;2023-03-18T04:10:37;101610.91;;;-0.66;49.61
35694;BME280;21812;55.536;37.664;2023-03-18T04:13:05;101612.59;;;-0.65;50.13
35694;BME280;21812;55.536;37.664;2023-03-18T04:15:32;101617.63;;;-0.61;50.49
35694;BME280;21812;55.536;37.664;2023-03-18T04:18:03;101613.88;;;-0.55;49.45
35694;BME280;21812;55.536;37.664;2023-03-18T04:20:36;101618.69;;;-0.46;49.43
35694;BME280;21812;55.536;37.664;2023-03-18T04:23:06;101624.72;;;-0.44;48.82
35694;BME280;21812;55.536;37.664;2023-03-18T04:25:32;101620.09;;;-0.38;49.75
35694;BME280;21812;55.536;37.664;2023-03-18T04:27:59;101624.41;;;-0.37;49.51
35694;BME280;21812;55.536;37.664;2023-03-18T04:30:25;101629.03;;;-0.43;49.77
35694;BME280;21812;55.536;37.664;2023-03-18T04:33:07;101624.56;;;-0.41;48.82
35694;BME280;21812;55.536;37.664;2023-03-18T04:35:37;101626.50;;;-0.27;48.40
35694;BME280;21812;55.536;37.664;2023-03-18T04:38:02;101623.69;;;-0.22;48.56
35694;BME280;21812;55.536;37.664;2023-03-18T04:40:29;101620.50;;;-0.29;48.08
35694;BME280;21812;55.536;37.664;2023-03-18T04:42:55;101624.00;;;-0.28;48.33
35694;BME280;21812;55.536;37.664;2023-03-18T04:45:23;101623.81;;;-0.25;48.71
35694;BME280;21812;55.536;37.664;2023-03-18T04:47:52;101620.50;;;-0.29;49.72
35694;BME280;21812;55.536;37.664;2023-03-18T04:50:18;101627.03;;;-0.18;48.67
35694;BME280;21812;55.536;37.664;2023-03-18T04:52:45;101625.16;;;-0.16;48.34
35694;BME280;21812;55.536;37.664;2023-03-18T04:55:15;101632.06;;;0.04;48.77
35694;BME280;21812;55.536;37.664;2023-03-18T04:57:44;101640.44;;;0.12;48.08
35694;BME280;21812;55.536;37.664;2023-03-18T05:00:15;101643.84;;;0.14;47.53
35694;BME280;21812;55.536;37.664;2023-03-18T05:02:43;101642.50;;;0.23;47.25
35694;BME280;21812;55.536;37.664;2023-03-18T05:05:10;101637.81;;;0.29;46.67
35694;BME280;21812;55.536;37.664;2023-03-18T05:07:41;101646.16;;;0.20;47.63
35694;BME280;21812;55.536;37.664;2023-03-18T05:10:11;101648.44;;;0.09;47.82
35694;BME280;21812;55.536;37.664;2023-03-18T05:12:38;101643.97;;;0.11;47.77
35694;BME280;21812;55.536;37.664;2023-03-18T05:15:06;101644.53;;;0.17;47.91
35694;BME280;21812;55.536;37.664;2023-03-18T05:17:34;101646.59;;;0.28;47.65
35694;BME280;21812;55.536;37.664;2023-03-18T05:20:02;101650.00;;;0.30;48.05
35694;BME280;21812;55.536;37.664;2023-03-18T05:22:29;101660.53;;;0.30;48.18
35694;BME280;21812;55.536;37.664;2023-03-18T05:25:04;101655.25;;;0.30;48.47
35694;BME280;21812;55.536;37.664;2023-03-18T05:27:31;101648.63;;;0.23;47.91
35694;BME280;21812;55.536;37.664;2023-03-18T05:30:03;101627.00;;;0.18;47.70
35694;BME280;21812;55.536;37.664;2023-03-18T05:32:37;101662.75;;;0.38;47.19
35694;BME280;21812;55.536;37.664;2023-03-18T05:35:05;101650.72;;;0.34;47.46
35694;BME280;21812;55.536;37.664;2023-03-18T05:37:40;101657.75;;;0.33;47.85
35694;BME280;21812;55.536;37.664;2023-03-18T05:40:07;101663.63;;;0.38;48.18
35694;BME280;21812;55.536;37.664;2023-03-18T05:42:38;101656.34;;;0.44;48.29
35694;BME280;21812;55.536;37.664;2023-03-18T05:45:06;101665.31;;;0.39;48.20
35694;BME280;21812;55.536;37.664;2023-03-18T05:47:33;101663.47;;;0.42;48.05
35694;BME280;21812;55.536;37.664;2023-03-18T05:50:10;101657.94;;;0.48;48.00
35694;BME280;21812;55.536;37.664;2023-03-18T05:52:37;101663.06;;;0.49;47.79
35694;BME280;21812;55.536;37.664;2023-03-18T05:55:07;101658.31;;;0.57;47.12
35694;BME280;21812;55.536;37.664;2023-03-18T05:57:37;101665.94;;;0.62;47.15
35694;BME280;21812;55.536;37.664;2023-03-18T06:00:08;101655.44;;;0.62;47.22
35694;BME280;21812;55.536;37.664;2023-03-18T06:02:44;101659.66;;;0.65;47.30
35694;BME280;21812;55.536;37.664;2023-03-18T06:05:12;101662.22;;;0.66;47.70
35694;BME280;21812;55.536;37.664;2023-03-18T06:07:39;101666.56;;;0.67;47.31
35694;BME280;21812;55.536;37.664;2023-03-18T06:10:06;101662.78;;;0.55;47.35
35694;BME280;21812;55.536;37.664;2023-03-18T06:12:32;101655.34;;;0.64;47.67
35694;BME280;21812;55.536;37.664;2023-03-18T06:14:58;101668.56;;;0.80;47.03
35694;BME280;21812;55.536;37.664;2023-03-18T06:17:25;101672.72;;;0.84;47.41
35694;BME280;21812;55.536;37.664;2023-03-18T06:19:52;101677.75;;;0.88;46.74
35694;BME280;21812;55.536;37.664;2023-03-18T06:22:18;101675.66;;;0.95;47.10
35694;BME280;21812;55.536;37.664;2023-03-18T06:24:44;101676.13;;;1.03;46.15
35694;BME280;21812;55.536;37.664;2023-03-18T06:27:10;101675.78;;;1.09;47.21
35694;BME280;21812;55.536;37.664;2023-03-18T06:29:39;101670.53;;;1.09;46.77
35694;BME280;21812;55.536;37.664;2023-03-18T06:32:10;101675.44;;;1.15;46.51
35694;BME280;21812;55.536;37.664;2023-03-18T06:34:37;101676.84;;;1.23;46.55
35694;BME280;21812;55.536;37.664;2023-03-18T06:37:04;101679.31;;;1.26;46.62
35694;BME280;21812;55.536;37.664;2023-03-18T06:39:32;101674.34;;;1.20;46.19
35694;BME280;21812;55.536;37.664;2023-03-18T06:42:02;101660.88;;;1.26;45.90
35694;BME280;21812;55.536;37.664;2023-03-18T06:44:36;101683.41;;;1.47;45.25
35694;BME280;21812;55.536;37.664;2023-03-18T06:47:13;101688.59;;;1.49;45.51
35694;BME280;21812;55.536;37.664;2023-03-18T06:49:45;101686.88;;;1.64;45.92
35694;BME280;21812;55.536;37.664;2023-03-18T06:52:17;101683.41;;;1.63;45.45
35694;BME280;21812;55.536;37.664;2023-03-18T06:54:45;101676.53;;;1.61;45.35
35694;BME280;21812;55.536;37.664;2023-03-18T06:57:11;101685.56;;;1.56;45.79
35694;BME280;21812;55.536;37.664;2023-03-18T06:59:36;101683.22;;;1.50;45.01
35694;BME280;21812;55.536;37.664;2023-03-18T07:02:03;101686.25;;;1.60;45.16
35694;BME280;21812;55.536;37.664;2023-03-18T07:04:30;101687.75;;;1.64;44.75
35694;BME280;21812;55.536;37.664;2023-03-18T07:06:58;101692.75;;;1.69;45.10
35694;BME280;21812;55.536;37.664;2023-03-18T07:09:25;101691.50;;;1.76;44.88
35694;BME280;21812;55.536;37.664;2023-03-18T07:11:54;101686.91;;;1.95;46.70
35694;BME280;21812;55.536;37.664;2023-03-18T07:14:21;101688.13;;;3.81;46.77
35694;BME280;21812;55.536;37.664;2023-03-18T07:16:49;101676.91;;;6.21;41.62
35694;BME280;21812;55.536;37.664;2023-03-18T07:19:14;101669.44;;;7.97;37.00
35694;BME280;21812;55.536;37.664;2023-03-18T07:21:42;101658.13;;;9.62;34.02
35694;BME280;21812;55.536;37.664;2023-03-18T07:24:08;101654.25;;;10.73;31.46
35694;BME280;21812;55.536;37.664;2023-03-18T07:26:35;101649.53;;;11.05;30.06
35694;BME280;21812;55.536;37.664;2023-03-18T07:29:02;101655.72;;;11.43;29.51
35694;BME280;21812;55.536;37.664;2023-03-18T07:31:31;101655.09;;;11.77;29.18
35694;BME280;21812;55.536;37.664;2023-03-18T07:33:56;101646.50;;;12.19;28.00
35694;BME280;21812;55.536;37.664;2023-03-18T07:36:23;101646.81;;;12.16;27.58
35694;BME280;21812;55.536;37.664;2023-03-18T07:38:49;101648.09;;;11.93;27.63
35694;BME280;21812;55.536;37.664;2023-03-18T07:41:15;101651.94;;;11.63;29.86
35694;BME280;21812;55.536;37.664;2023-03-18T07:43:41;101648.75;;;11.22;30.51
35694;BME280;21812;55.536;37.664;2023-03-18T07:46:07;101658.63;;;11.22;30.06
35694;BME280;21812;55.536;37.664;2023-03-18T07:48:33;101633.34;;;10.96;30.36
35694;BME280;21812;55.536;37.664;2023-03-18T07:50:59;101645.44;;;11.10;30.92
35694;BME280;21812;55.536;37.664;2023-03-18T07:53:26;101653.81;;;11.25;32.59
35694;BME280;21812;55.536;37.664;2023-03-18T07:55:52;101651.06;;;11.63;32.71
35694;BME280;21812;55.536;37.664;2023-03-18T07:58:18;101654.97;;;11.68;28.30
35694;BME280;21812;55.536;37.664;2023-03-18T08:00:44;101657.22;;;11.73;30.95
35694;BME280;21812;55.536;37.664;2023-03-18T08:03:11;101598.66;;;11.42;29.35
35694;BME280;21812;55.536;37.664;2023-03-18T08:05:37;101651.47;;;11.96;29.28
35694;BME280;21812;55.536;37.664;2023-03-18T08:08:03;101652.91;;;11.62;28.99
35694;BME280;21812;55.536;37.664;2023-03-18T08:10:30;101642.00;;;11.73;28.41
35694;BME280;21812;55.536;37.664;2023-03-18T08:12:56;101659.03;;;12.00;28.90
35694;BME280;21812;55.536;37.664;2023-03-18T08:15:22;101657.06;;;12.02;28.78
35694;BME280;21812;55.536;37.664;2023-03-18T08:17:48;101657.53;;;12.60;27.80
35694;BME280;21812;55.536;37.664;2023-03-18T08:20:14;101653.78;;;12.52;27.13
35694;BME280;21812;55.536;37.664;2023-03-18T08:22:40;101654.19;;;12.84;27.43
35694;BME280;21812;55.536;37.664;2023-03-18T08:25:07;101656.41;;;12.88;26.07
35694;BME280;21812;55.536;37.664;2023-03-18T08:27:33;101642.84;;;12.90;26.12
35694;BME280;21812;55.536;37.664;2023-03-18T08:29:58;101648.06;;;12.91;25.21
35694;BME280;21812;55.536;37.664;2023-03-18T08:32:24;101650.81;;;12.56;24.47
35694;BME280;21812;55.536;37.664;2023-03-18T08:34:50;101623.03;;;12.57;25.47
35694;BME280;21812;55.536;37.664;2023-03-18T08:37:16;101649.41;;;12.43;25.35
35694;BME280;21812;55.536;37.664;2023-03-18T08:39:43;101645.94;;;12.33;25.15
35694;BME280;21812;55.536;37.664;2023-03-18T08:42:11;101652.41;;;12.22;24.50
35694;BME280;21812;55.536;37.664;2023-03-18T08:44:37;101652.88;;;13.14;25.68
35694;BME280;21812;55.536;37.664;2023-03-18T08:47:05;101639.19;;;13.25;24.13
35694;BME280;21812;55.536;37.664;2023-03-18T08:49:41;101650.72;;;12.91;23.89
35694;BME280;21812;55.536;37.664;2023-03-18T08:52:07;101641.53;;;13.28;24.85
35694;BME280;21812;55.536;37.664;2023-03-18T08:54:32;101629.31;;;13.85;24.67
35694;BME280;21812;55.536;37.664;2023-03-18T08:56:58;101626.34;;;14.62;23.49
35694;BME280;21812;55.536;37.664;2023-03-18T08:59:24;101621.88;;;15.02;22.82
35694;BME280;21812;55.536;37.664;2023-03-18T09:01:50;101615.34;;;15.04;22.86
35694;BME280;21812;55.536;37.664;2023-03-18T09:04:17;101622.78;;;14.86;22.01
35694;BME280;21812;55.536;37.664;2023-03-18T09:06:44;101621.63;;;14.06;21.93
35694;BME280;21812;55.536;37.664;2023-03-18T09:09:10;101609.66;;;13.76;23.26
35694;BME280;21812;55.536;37.664;2023-03-18T09:11:36;101608.16;;;13.65;23.25
35694;BME280;21812;55.536;37.664;2023-03-18T09:14:03;101612.06;;;14.04;22.87
35694;BME280;21812;55.536;37.664;2023-03-18T09:16:29;101609.69;;;13.84;22.84
35694;BME280;21812;55.536;37.664;2023-03-18T09:18:54;101606.03;;;13.94;23.02
35694;BME280;21812;55.536;37.664;2023-03-18T09:21:20;101606.19;;;14.25;22.43
35694;BME280;21812;55.536;37.664;2023-03-18T09:23:46;101611.19;;;13.87;22.18
35694;BME280;21812;55.536;37.664;2023-03-18T09:26:13;101617.84;;;13.58;22.54
35694;BME280;21812;55.536;37.664;2023-03-18T09:28:39;101605.19;;;14.10;22.90
35694;BME280;21812;55.536;37.664;2023-03-18T09:31:05;101593.75;;;14.40;21.95
35694;BME280;21812;55.536;37.664;2023-03-18T09:33:31;101591.38;;;14.78;21.79
35694;BME280;21812;55.536;37.664;2023-03-18T09:35:56;101590.75;;;13.94;20.05
35694;BME280;21812;55.536;37.664;2023-03-18T09:38:22;101596.09;;;14.02;21.44
35694;BME280;21812;55.536;37.664;2023-03-18T09:43:47;101586.84;;;14.71;21.19
35694;BME280;21812;55.536;37.664;2023-03-18T09:51:46;101588.72;;;14.29;21.02
35694;BME280;21812;55.536;37.664;2023-03-18T09:54:34;101580.13;;;14.66;21.59
35694;BME280;21812;55.536;37.664;2023-03-18T09:57:10;101558.25;;;14.78;20.89
35694;BME280;21812;55.536;37.664;2023-03-18T09:59:39;101581.06;;;14.90;21.12
35694;BME280;21812;55.536;37.664;2023-03-18T10:02:39;101572.03;;;14.75;20.53
35694;BME280;21812;55.536;37.664;2023-03-18T10:05:08;101544.19;;;14.43;20.72
35694;BME280;21812;55.536;37.664;2023-03-18T10:07:39;101571.94;;;13.86;19.73
35694;BME280;21812;55.536;37.664;2023-03-18T10:10:15;101568.91;;;13.81;20.98
35694;BME280;21812;55.536;37.664;2023-03-18T10:12:47;101554.81;;;14.03;20.87
35694;BME280;21812;55.536;37.664;2023-03-18T10:15:34;101562.31;;;14.74;21.10
35694;BME280;21812;55.536;37.664;2023-03-18T10:18:02;101543.59;;;15.82;19.70
35694;BME280;21812;55.536;37.664;2023-03-18T10:20:41;101546.09;;;16.22;18.80
35694;BME280;21812;55.536;37.664;2023-03-18T10:25:55;101505.09;;;17.31;17.99
35694;BME280;21812;55.536;37.664;2023-03-18T10:36:20;101517.16;;;17.78;16.04
35694;BME280;21812;55.536;37.664;2023-03-18T10:38:49;101493.38;;;17.67;17.00
35694;BME280;21812;55.536;37.664;2023-03-18T10:41:21;101518.19;;;18.20;15.97
35694;BME280;21812;55.536;37.664;2023-03-18T10:43:49;101492.91;;;18.06;16.56
35694;BME280;21812;55.536;37.664;2023-03-18T10:46:18;101512.16;;;18.88;16.45
35694;BME280;21812;55.536;37.664;2023-03-18T10:48:47;101507.00;;;19.75;16.10
35694;BME280;21812;55.536;37.664;2023-03-18T10:51:35;101500.72;;;19.87;15.32
35694;BME280;21812;55.536;37.664;2023-03-18T10:56:36;101501.28;;;19.49;15.34
35694;BME280;21812;55.536;37.664;2023-03-18T10:59:16;101486.13;;;20.08;15.85
35694;BME280;21812;55.536;37.664;2023-03-18T11:01:48;101494.06;;;20.95;14.49
35694;BME280;21812;55.536;37.664;2023-03-18T11:04:19;101465.22;;;21.64;14.37
35694;BME280;21812;55.536;37.664;2023-03-18T11:09:19;101486.25;;;21.76;14.49
35694;BME280;21812;55.536;37.664;2023-03-18T11:11:48;101481.47;;;22.21;14.05
35694;BME280;21812;55.536;37.664;2023-03-18T11:14:18;101474.69;;;23.35;13.21
35694;BME280;21812;55.536;37.664;2023-03-18T11:16:56;101449.91;;;23.78;12.70
35694;BME280;21812;55.536;37.664;2023-03-18T11:19:37;101481.28;;;24.75;12.21
35694;BME280;21812;55.536;37.664;2023-03-18T11:24:32;101460.84;;;25.69;11.58
35694;BME280;21812;55.536;37.664;2023-03-18T11:27:04;101464.06;;;25.66;11.32
35694;BME280;21812;55.536;37.664;2023-03-18T11:29:55;101442.72;;;25.97;11.00
35694;BME280;21812;55.536;37.664;2023-03-18T11:32:26;101445.44;;;26.36;10.81
35694;BME280;21812;55.536;37.664;2023-03-18T11:34:54;101441.00;;;26.74;10.90
35694;BME280;21812;55.536;37.664;2023-03-18T11:37:27;101460.41;;;27.22;10.48
35694;BME280;21812;55.536;37.664;2023-03-18T11:42:44;101464.97;;;27.71;9.92
35694;BME280;21812;55.536;37.664;2023-03-18T11:47:54;101452.69;;;28.21;9.53
35694;BME280;21812;55.536;37.664;2023-03-18T11:50:22;101458.81;;;28.38;9.45
35694;BME280;21812;55.536;37.664;2023-03-18T11:53:12;101444.66;;;28.67;9.06
35694;BME280;21812;55.536;37.664;2023-03-18T12:01:22;101454.88;;;28.77;9.37
35694;BME280;21812;55.536;37.664;2023-03-18T12:06:32;101442.59;;;28.37;9.36
35694;BME280;21812;55.536;37.664;2023-03-18T12:09:24;101456.44;;;28.57;9.59
35694;BME280;21812;55.536;37.664;2023-03-18T12:14:28;101445.38;;;29.67;8.91
35694;BME280;21812;55.536;37.664;2023-03-18T12:34:17;101449.75;;;30.04;8.44
35694;BME280;21812;55.536;37.664;2023-03-18T12:49:34;101409.47;;;30.33;8.38
35694;BME280;21812;55.536;37.664;2023-03-18T12:52:07;101411.16;;;30.14;8.65
35694;BME280;21812;55.536;37.664;2023-03-18T12:54:58;101428.19;;;30.26;9.08
35694;BME280;21812;55.536;37.664;2023-03-18T12:57:39;101428.28;;;29.85;9.04
35694;BME280;21812;55.536;37.664;2023-03-18T13:05:49;101430.03;;;26.30;10.28
35694;BME280;21812;55.536;37.664;2023-03-18T13:10:58;101429.16;;;25.90;10.60
35694;BME280;21812;55.536;37.664;2023-03-18T13:13:32;101420.94;;;25.90;10.53
35694;BME280;21812;55.536;37.664;2023-03-18T13:16:00;101395.63;;;25.95;10.78
35694;BME280;21812;55.536;37.664;2023-03-18T13:18:37;101416.50;;;26.23;10.32
35694;BME280;21812;55.536;37.664;2023-03-18T13:21:04;101412.03;;;26.83;10.00
35694;BME280;21812;55.536;37.664;2023-03-18T13:42:27;101396.16;;;27.13;10.25
35694;BME280;21812;55.536;37.664;2023-03-18T13:48:05;101378.66;;;27.51;9.70
35694;BME280;21812;55.536;37.664;2023-03-18T13:50:37;101366.50;;;27.37;9.92
35694;BME280;21812;55.536;37.664;2023-03-18T13:53:05;101346.81;;;27.45;9.43
35694;BME280;21812;55.536;37.664;2023-03-18T13:56:23;101371.66;;;28.13;9.66
35694;BME280;21812;55.536;37.664;2023-03-18T13:58:35;101359.28;;;25.44;10.72
35694;BME280;21812;55.536;37.664;2023-03-18T14:01:29;101374.72;;;25.21;11.34
35694;BME280;21812;55.536;37.664;2023-03-18T14:07:14;101371.41;;;25.53;10.91
35694;BME280;21812;55.536;37.664;2023-03-18T14:22:54;101368.94;;;21.28;13.79
35694;BME280;21812;55.536;37.664;2023-03-18T14:27:58;101366.16;;;21.35;13.43
35694;BME280;21812;55.536;37.664;2023-03-18T14:33:04;101345.19;;;18.95;15.63
35694;BME280;21812;55.536;37.664;2023-03-18T14:38:20;101377.72;;;17.06;16.98
35694;BME280;21812;55.536;37.664;2023-03-18T14:40:48;101338.94;;;17.07;17.39
35694;BME280;21812;55.536;37.664;2023-03-18T14:43:43;101370.97;;;18.29;16.40
35694;BME280;21812;55.536;37.664;2023-03-18T14:46:17;101358.31;;;17.67;16.51
35694;BME280;21812;55.536;37.664;2023-03-18T14:48:50;101343.19;;;17.44;16.26
35694;BME280;21812;55.536;37.664;2023-03-18T14:51:19;101377.59;;;17.35;16.65
35694;BME280;21812;55.536;37.664;2023-03-18T14:53:53;101368.41;;;17.30;16.22
35694;BME280;21812;55.536;37.664;2023-03-18T14:56:24;101365.16;;;16.25;16.42
35694;BME280;21812;55.536;37.664;2023-03-18T14:58:54;101373.47;;;15.94;17.54
35694;BME280;21812;55.536;37.664;2023-03-18T15:01:31;101380.97;;;15.60;17.32
35694;BME280;21812;55.536;37.664;2023-03-18T15:03:59;101364.25;;;15.50;18.42
35694;BME280;21812;55.536;37.664;2023-03-18T15:06:26;101372.22;;;15.81;17.28
35694;BME280;21812;55.536;37.664;2023-03-18T15:09:00;101377.38;;;15.07;17.62